Latest Coastal Weather Observations for Kowanyama

IDQ60701

Issued at 2:36 pm EST Tuesday 26 July 2016 (issued every 10 minutes, with the page automatically refreshed every 10 minutes)

About coastal observations | Map of coastal stations | Coastal observations for QLD | Marine services | Other Formats
Station Details ID: 029038 Name: KOWANYAMA AIRPORT Lat: -15.48 Lon: 141.75 Height: 9.6 m
Data from the previous 72 hours. | See also: Recent months at Kowanyama
Date/Time
EST
Temp
°C
Wind Pressure Rain since
9am
mm
Weather Cloud Vis
km
Sea
Height
m
Swell
Dir  Spd
kts
Gust
kts
hPa Trend Height
m
Period
s
Dir
26/02:30pm 31.3 NE 6 11 1011.9 - 0.0 - Partly cloudy - - - - -
26/02:00pm 30.5 E 8 14 1012.3 - 0.0 - - - - - - -
26/01:30pm 30.2 E 7 10 1012.6 - 0.0 - - - - - - -
26/01:00pm 30.1 SE 8 13 1013.2 - 0.0 - - - - - - -
26/12:30pm 29.6 ENE 5 8 1013.7 - 0.0 - - - - - - -
26/12:00pm 29.0 ENE 7 11 1014.2 - 0.0 - - - - - - -
26/11:30am 28.0 E 8 13 1014.6 - 0.0 - - - - - - -
26/11:00am 27.3 E 9 15 1015.1 - 0.0 - - - - - - -
26/10:30am 27.0 ESE 8 13 1015.3 - 0.0 - - - - - - -
26/10:00am 26.0 SE 9 13 1015.6 - 0.0 - - - - - - -
26/09:30am 25.2 ESE 9 13 1015.5 - 0.0 - - - - - - -
26/09:00am 24.0 SE 6 8 1015.5 - 0.0 - - - - - - -
26/08:30am 21.9 SE 4 5 1015.5 - 0.0 - - - - - - -
26/08:00am 19.8 ESE 1 3 1015.3 - 0.0 - - - - - - -
26/07:30am 17.6 SE 3 4 1014.9 - 0.0 - - - - - - -
26/07:00am 16.9 CALM 0 0 1014.6 - 0.0 - - - - - - -
26/06:30am 17.0 CALM 0 0 1014.2 - 0.0 - - - - - - -
26/06:00am 17.4 CALM 0 0 1013.9 - 0.0 - - - - - - -
26/05:30am 17.7 CALM 0 0 1013.5 - 0.0 - - - - - - -
26/05:00am 18.1 CALM 0 0 1013.4 - 0.0 - - - - - - -
26/04:30am 18.5 CALM 0 0 1013.2 - 0.0 - - - - - - -
26/04:00am 18.7 CALM 0 0 1013.3 - 0.0 - - - - - - -
26/03:30am 19.1 CALM 0 0 1013.3 - 0.0 - - - - - - -
26/03:00am 19.9 SSE 3 4 1013.4 - 0.0 - - - - - - -
26/02:30am 20.3 CALM 0 0 1013.5 - 0.0 - Partly cloudy - - - - -
26/02:00am 20.5 S 3 5 1013.7 - 0.0 - Partly cloudy - - - - -
26/01:30am 20.4 SSW 2 5 1013.9 - 0.0 - Partly cloudy - - - - -
26/01:00am 20.5 CALM 0 0 1013.9 - 0.0 - Partly cloudy - - - - -
26/12:30am 20.8 E 2 4 1014.2 - 0.0 - Partly cloudy - - - - -
26/12:00am 20.8 CALM 0 0 1014.1 - 0.0 - Partly cloudy - - - - -
 
Date/Time
EST
Temp
°C
Wind Pressure Rain since
9am
mm
Weather Cloud Vis
km
Sea
Height
m
Swell
Dir  Spd
kts
Gust
kts
hPa Trend Height
m
Period
s
Dir
25/11:30pm 22.0 SE 4 9 1014.1 - 0.0 - Partly cloudy - - - - -
25/11:00pm 21.2 S 3 11 1014.1 - 0.0 - Partly cloudy - - - - -
25/10:30pm 21.7 SSW 4 6 1013.8 - 0.0 - - - - - - -
25/10:00pm 22.1 SW 5 7 1013.8 - 0.0 - - - - - - -
25/09:30pm 22.3 SW 5 8 1013.7 - 0.0 - - - - - - -
25/09:00pm 22.5 SW 4 6 1013.6 - 0.0 - - - - - - -
25/08:30pm 22.6 SW 5 7 1013.4 - 0.0 - - - - - - -
25/08:00pm 23.2 WSW 5 7 1013.0 - 0.0 - - - - - - -
25/07:30pm 24.1 WSW 5 7 1012.4 - 0.0 - - - - - - -
25/07:00pm 25.7 SE 3 4 1011.9 - 0.0 - - - - - - -
25/06:30pm 27.4 SE 3 4 1011.7 - 0.0 - - - - - - -
25/06:00pm 29.1 ESE 6 7 1011.6 - 0.0 - - - - - - -
25/05:30pm 30.2 ESE 6 10 1011.4 - 0.0 - - - - - - -
25/05:00pm 30.6 SE 9 13 1011.2 - 0.0 - - - - - - -
25/04:30pm 31.1 SE 8 12 1011.1 - 0.0 - - - - - - -
25/04:00pm 31.3 SE 11 16 1011.2 - 0.0 - - - - - - -
25/03:30pm 31.3 SE 10 16 1011.2 - 0.0 - - - - - - -
25/03:00pm 31.4 SE 12 16 1011.5 - 0.0 - - - - - - -
25/02:30pm 30.8 SE 10 15 1011.9 - 0.0 - - - - - - -
25/02:00pm 30.9 SE 12 16 1012.4 - 0.0 - - - - - - -
25/01:30pm 30.2 SE 9 14 1012.8 - 0.0 - - - - - - -
25/01:00pm 29.9 ESE 9 14 1013.2 - 0.0 - - - - - - -
25/12:30pm 29.7 SE 11 16 1013.7 - 0.0 - - - - - - -
25/12:00pm 28.9 SSE 10 14 1014.1 - 0.0 - - - - - - -
25/11:30am 27.7 SE 9 15 1014.6 - 0.0 - - - - - - -
25/11:00am 27.6 ESE 7 13 1015.1 - 0.0 - - - - - - -
25/10:30am 26.2 ESE 10 14 1015.4 - 0.0 - - - - - - -
25/10:00am 25.6 ESE 8 13 1015.5 - 0.0 - - - - - - -
25/09:30am 24.7 E 7 11 1015.6 - 0.0 - - - - - - -
25/09:00am 23.8 E 6 8 1015.5 - 0.0 - - - - - - -
25/08:30am 21.9 SE 4 4 1015.3 - 0.0 - - - - - - -
25/08:00am 20.3 CALM 0 0 1015.0 - 0.0 - - - - - - -
25/07:30am 18.0 CALM 0 4 1014.5 - 0.0 - - - - - - -
25/07:00am 17.4 CALM 0 0 1014.2 - 0.0 - - - - - - -
25/06:30am 17.6 CALM 0 0 1013.7 - 0.0 - - - - - - -
25/06:00am 17.9 CALM 0 0 1013.5 - 0.0 - - - - - - -
25/05:30am 18.3 CALM 0 0 1013.2 - 0.0 - - - - - - -
25/05:00am 18.2 CALM 0 0 1012.9 - 0.0 - - - - - - -
25/04:30am 18.6 CALM 0 0 1012.9 - 0.0 - - - - - - -
25/04:00am 18.7 CALM 0 0 1013.1 - 0.0 - - - - - - -
25/03:30am 19.3 ESE 3 4 1013.0 - 0.0 - - - - - - -
25/03:00am 19.6 E 1 4 1013.0 - 0.0 - - - - - - -
25/02:30am 19.9 ESE 3 4 1013.3 - 0.0 - - - - - - -
25/02:00am 20.6 ESE 3 4 1013.3 - 0.0 - - - - - - -
25/01:30am 21.1 E 6 8 1013.6 - 0.0 - - - - - - -
25/01:00am 21.0 ESE 6 11 1013.4 - 0.0 - - - - - - -
25/12:30am 21.2 S 5 7 1012.8 - 0.0 - - - - - - -
25/12:00am 21.3 S 5 7 1012.9 - 0.0 - - - - - - -
 
Date/Time
EST
Temp
°C
Wind Pressure Rain since
9am
mm
Weather Cloud Vis
km
Sea
Height
m
Swell
Dir  Spd
kts
Gust
kts
hPa Trend Height
m
Period
s
Dir
24/11:30pm 21.3 S 4 6 1013.2 - 0.0 - - - - - - -
24/11:00pm 21.7 SSW 3 4 1013.3 - 0.0 - - - - - - -
24/10:30pm 22.0 SSW 3 4 1013.4 - 0.0 - - - - - - -
24/10:00pm 22.5 SSW 5 6 1013.4 - 0.0 - - - - - - -
24/09:30pm 22.7 SSW 5 6 1013.5 - 0.0 - - - - - - -
24/09:00pm 22.9 SW 5 7 1013.4 - 0.0 - - - - - - -
24/08:30pm 23.1 SW 4 5 1013.2 - 0.0 - - - - - - -
24/08:00pm 23.7 WSW 5 7 1013.0 - 0.0 - - - - - - -
24/07:30pm 24.4 SW 6 9 1012.5 - 0.0 - - - - - - -
24/07:00pm 24.8 WSW 5 8 1012.1 - 0.0 - - - - - - -
24/06:30pm 26.2 W 5 7 1011.8 - 0.0 - - - - - - -
24/06:00pm 28.7 SW 5 9 1011.4 - 0.0 - - - - - - -
24/05:30pm 31.3 SE 6 8 1011.2 - 0.0 - - - - - - -
24/05:00pm 31.6 SE 6 9 1010.9 - 0.0 - - - - - - -
24/04:30pm 31.7 SSE 7 11 1010.6 - 0.0 - - - - - - -
24/04:00pm 32.3 ESE 7 11 1010.5 - 0.0 - - - - - - -
24/03:30pm 32.4 ESE 7 10 1010.6 - 0.0 - - - - - - -
24/03:00pm 32.3 ESE 6 11 1011.1 - 0.0 - - - - - - -
24/02:30pm 31.6 SE 8 12 1011.5 - 0.0 - - - - - - -
24/02:00pm 30.8 ESE 7 14 1011.9 - 0.0 - - - - - - -
24/01:30pm 30.5 SE 8 13 1012.4 - 0.0 - Partly cloudy - - - - -
24/01:00pm 31.1 ESE 10 15 1013.0 - 0.0 - - - - - - -
24/12:30pm 30.4 ESE 8 14 1013.4 - 0.0 - Partly cloudy - - - - -
24/12:00pm 29.7 ESE 8 13 1013.8 - 0.0 - Mostly clear - - - - -
24/11:30am 29.3 ESE 7 12 1014.2 - 0.0 - Partly cloudy - - - - -
24/11:00am 28.6 ESE 8 12 1014.6 - 0.0 - - - - - - -
24/10:30am 27.7 ESE 8 11 1014.6 - 0.0 - - - - - - -
24/10:00am 27.3 ENE 7 11 1014.8 - 0.0 - - - - - - -
24/09:30am 26.0 ENE 8 11 1014.8 - 0.0 - - - - - - -
24/09:00am 25.1 ENE 6 11 1014.7 - 0.0 - - - - - - -
24/08:30am 23.6 ENE 4 7 1014.5 - 0.0 - - - - - - -
24/08:00am 21.9 CALM 0 0 1014.4 - 0.0 - - - - - - -
24/07:30am 18.8 CALM 0 0 1014.2 - 0.0 - - - - - - -
24/07:00am 18.6 CALM 0 0 1013.8 - 0.0 - - - - - - -
24/06:30am 18.6 CALM 0 0 1013.4 - 0.0 - - - - - - -
24/06:00am 18.5 CALM 0 0 1013.0 - 0.0 - - - - - - -
24/05:30am 18.6 CALM 0 0 1012.6 - 0.0 - - - - - - -
24/05:00am 18.7 NE 2 3 1012.4 - 0.0 - - - - - - -
24/04:30am 18.8 ENE 3 4 1012.3 - 0.0 - - - - - - -
24/04:00am 19.0 ENE 3 4 1012.3 - 0.0 - - - - - - -
24/03:30am 19.0 CALM 0 0 1012.3 - 0.0 - - - - - - -
24/03:00am 19.2 CALM 0 0 1012.3 - 0.0 - - - - - - -
24/02:30am 19.5 CALM 0 0 1012.6 - 0.0 - - - - - - -
24/02:00am 19.7 CALM 0 0 1012.6 - 0.0 - - - - - - -
24/01:30am 19.9 ENE 2 4 1012.8 - 0.0 - - - - - - -
24/01:00am 20.9 E 3 4 1012.9 - 0.0 - - - - - - -
24/12:30am 20.8 ENE 7 14 1012.7 - 0.0 - Partly cloudy - - - - -
24/12:00am 21.3 SSE 3 4 1012.1 - 0.0 - - - - - - -
 
Date/Time
EST
Temp
°C
Wind Pressure Rain since
9am
mm
Weather Cloud Vis
km
Sea
Height
m
Swell
Dir  Spd
kts
Gust
kts
hPa Trend Height
m
Period
s
Dir
23/11:30pm 21.3 SSW 3 4 1012.1 - 0.0 - - - - - - -
23/11:00pm 21.4 SSW 3 4 1012.2 - 0.0 - - - - - - -
23/10:30pm 21.6 WSW 3 3 1012.2 - 0.0 - - - - - - -
23/10:00pm 22.3 SW 4 6 1012.1 - 0.0 - - - - - - -
23/09:30pm 22.8 SW 5 6 1011.7 - 0.0 - - - - - - -
23/09:00pm 22.9 SW 4 6 1011.5 - 0.0 - - - - - - -
23/08:30pm 23.1 SW 5 6 1011.3 - 0.0 - - - - - - -
23/08:00pm 23.6 SW 4 6 1011.0 - 0.0 - - - - - - -
23/07:30pm 24.3 SW 5 6 1010.7 - 0.0 - - - - - - -
23/07:00pm 24.9 WSW 5 7 1010.6 - 0.0 - - - - - - -
23/06:30pm 25.8 WSW 5 5 1010.4 - 0.0 - - - - - - -
23/06:00pm 27.4 WSW 6 8 1010.2 - 0.0 - - - - - - -
23/05:30pm 28.5 WSW 9 13 1010.0 - 0.0 - - - - - - -
23/05:00pm 29.7 WSW 8 11 1009.7 - 0.0 - Partly cloudy - - - - -
23/04:30pm 32.5 SE 8 13 1009.4 - 0.0 - Partly cloudy - - - - -
23/04:00pm 31.5 SE 10 15 1009.5 - 0.0 - - - - - - -
23/03:30pm 32.0 SE 7 12 1009.7 - 0.0 - Partly cloudy - - - - -
23/03:00pm 32.0 ESE 8 13 1010.0 - 0.0 - - - - - - -

Other Formats:

Comma delimited format used in spreadsheet applications
http://www.bom.gov.au/fwo/IDQ60701/IDQ60701.94268.axf

JavaScript Object Notation format (JSON) in row-major order
http://www.bom.gov.au/fwo/IDQ60701/IDQ60701.94268.json